Time;durP1;ratioP1;P1;durP2;ratioP2;P2;SDS_P1;SDS_P2;PMS_P1;PMS_P2;Temp;Humidity;BMP_temperature;BMP_pressure;BME280_temperature;BME280_humidity;BME280_pressure;Samples;Min_cycle;Max_cycle;Signal;HPM_P1;HPM_P2
2023/08/16 00:00:58;;;;;;;8.87;3.30;;;;;;;21.49;98.18;101794.47;5211671;28;20026;-72
2023/08/16 00:03:29;;;;;;;9.27;3.90;;;;;;;21.40;100.00;101790.81;5211428;28;20046;-72
2023/08/16 00:06:11;;;;;;;8.77;3.70;;;;;;;21.53;98.77;101792.34;5210106;28;20033;-73
2023/08/16 00:08:42;;;;;;;7.00;3.57;;;;;;;21.37;99.49;101792.91;5210543;28;20080;-72
2023/08/16 00:11:13;;;;;;;4.80;2.70;;;;;;;21.18;99.10;101802.59;5211416;28;20153;-72
2023/08/16 00:13:45;;;;;;;7.97;4.00;;;;;;;21.28;100.00;101806.09;5210871;28;20089;-72
2023/08/16 00:16:16;;;;;;;4.93;3.27;;;;;;;21.38;99.88;101798.09;5196562;28;20065;-72
2023/08/16 00:18:47;;;;;;;6.43;3.77;;;;;;;21.24;100.00;101796.69;5211351;28;20105;-72
2023/08/16 00:21:19;;;;;;;6.13;3.30;;;;;;;21.24;100.00;101798.53;5200562;28;20065;-72
2023/08/16 00:23:50;;;;;;;7.37;3.90;;;;;;;21.27;100.00;101796.44;5219953;28;20041;-72
2023/08/16 00:26:21;;;;;;;8.23;3.03;;;;;;;21.09;100.00;101798.09;5214740;28;20117;-72
2023/08/16 00:28:54;;;;;;;7.83;3.90;;;;;;;21.30;100.00;101797.13;5215091;28;20026;-72
2023/08/16 00:31:25;;;;;;;6.33;3.20;;;;;;;21.41;100.00;101797.00;5227797;28;20052;-72
2023/08/16 00:33:56;;;;;;;10.83;3.37;;;;;;;21.22;100.00;101787.19;5231291;28;20121;-72
2023/08/16 00:36:27;;;;;;;6.23;3.53;;;;;;;21.02;100.00;101798.66;5236452;28;20104;-72
2023/08/16 00:38:59;;;;;;;7.60;3.63;;;;;;;21.00;100.00;101799.75;5232800;28;20041;-72
2023/08/16 00:41:30;;;;;;;7.30;3.10;;;;;;;20.93;100.00;101807.41;5222818;28;20033;-72
2023/08/16 00:44:01;;;;;;;8.50;3.83;;;;;;;20.97;100.00;101811.53;5210916;28;20121;-72
2023/08/16 00:46:33;;;;;;;7.40;3.47;;;;;;;20.75;100.00;101812.59;5202281;28;20017;-72
2023/08/16 00:49:04;;;;;;;8.97;4.33;;;;;;;21.00;100.00;101816.59;5199281;28;20033;-72
2023/08/16 00:51:36;;;;;;;7.53;4.20;;;;;;;21.00;100.00;101819.25;5217215;28;20049;-72
2023/08/16 00:54:07;;;;;;;10.37;4.73;;;;;;;20.95;100.00;101818.81;5209724;28;20033;-72
2023/08/16 00:56:39;;;;;;;5.43;4.33;;;;;;;20.79;100.00;101825.47;5221649;28;20020;-72
2023/08/16 00:59:10;;;;;;;8.30;4.03;;;;;;;20.70;100.00;101822.78;5214562;28;20041;-72
2023/08/16 01:01:43;;;;;;;9.53;4.07;;;;;;;20.73;100.00;101823.38;5219035;28;20038;-72
2023/08/16 01:04:15;;;;;;;8.03;3.87;;;;;;;20.56;100.00;101819.53;5213828;28;20054;-72
2023/08/16 01:06:48;;;;;;;8.87;4.17;;;;;;;20.72;100.00;101827.00;5213277;28;20068;-72
2023/08/16 01:09:20;;;;;;;10.03;5.40;;;;;;;20.59;100.00;101823.72;5287157;22;20060;-72
2023/08/16 01:12:06;;;;;;;7.50;4.60;;;;;;;20.79;100.00;101835.28;5246706;28;20130;-72
2023/08/16 01:15:10;;;;;;;8.63;4.90;;;;;;;21.06;100.00;101833.00;5256146;28;20105;-72
2023/08/16 01:17:43;;;;;;;11.80;5.77;;;;;;;20.97;100.00;101838.16;5255500;28;20510;-72
2023/08/16 01:20:15;;;;;;;10.87;4.97;;;;;;;20.90;100.00;101832.50;5254447;28;20112;-72
2023/08/16 01:23:01;;;;;;;10.83;5.17;;;;;;;20.92;100.00;101829.72;5254910;28;20024;-72
2023/08/16 01:25:35;;;;;;;9.90;4.97;;;;;;;20.76;100.00;101841.72;5255218;28;20033;-72
2023/08/16 01:28:08;;;;;;;10.60;6.00;;;;;;;20.59;100.00;101839.69;5262331;28;20054;-72
2023/08/16 01:30:41;;;;;;;7.07;5.10;;;;;;;20.78;100.00;101844.25;5259662;28;20017;-71
2023/08/16 01:33:13;;;;;;;5.80;4.53;;;;;;;20.83;100.00;101854.47;5266579;28;20033;-71
2023/08/16 01:35:45;;;;;;;7.23;5.03;;;;;;;20.77;100.00;101845.22;5237265;28;20287;-71
2023/08/16 01:38:16;;;;;;;5.70;5.10;;;;;;;20.68;100.00;101849.53;5254267;28;20114;-71
2023/08/16 01:40:59;;;;;;;10.73;6.17;;;;;;;20.86;100.00;101851.53;5220407;28;20475;-71
2023/08/16 01:43:31;;;;;;;8.83;5.40;;;;;;;20.65;100.00;101849.78;5255164;28;20452;-72
2023/08/16 01:46:04;;;;;;;11.00;5.20;;;;;;;20.94;100.00;101849.09;5244015;28;20384;-72
2023/08/16 01:48:38;;;;;;;8.20;5.30;;;;;;;20.81;100.00;101838.66;5236924;28;20086;-72
2023/08/16 01:51:10;;;;;;;8.98;5.55;;;;;;;20.73;100.00;101842.00;5236654;28;20100;-71
2023/08/16 01:53:41;;;;;;;7.67;5.57;;;;;;;20.69;100.00;101851.22;5253800;28;20033;-71
2023/08/16 01:56:12;;;;;;;11.33;6.00;;;;;;;20.43;100.00;101843.69;5236130;28;20027;-71
2023/08/16 01:58:44;;;;;;;15.30;6.13;;;;;;;20.57;100.00;101842.50;5254619;28;20082;-71
2023/08/16 02:01:16;;;;;;;8.13;5.47;;;;;;;20.44;100.00;101842.69;5252683;28;20391;-72
2023/08/16 02:03:47;;;;;;;10.97;5.80;;;;;;;20.45;100.00;101836.44;5243248;28;20026;-71
2023/08/16 02:06:18;;;;;;;9.30;5.50;;;;;;;20.57;100.00;101853.13;5251318;28;20103;-71
2023/08/16 02:08:50;;;;;;;8.60;5.00;;;;;;;20.35;100.00;101840.88;5260663;28;20049;-71
2023/08/16 02:11:22;;;;;;;6.67;5.70;;;;;;;20.43;100.00;101857.84;5255377;28;20037;-71
2023/08/16 02:13:53;;;;;;;7.13;5.37;;;;;;;20.41;100.00;101848.28;5275591;28;20039;-71
2023/08/16 02:16:25;;;;;;;7.80;5.70;;;;;;;20.27;100.00;101846.81;5274623;28;20031;-71
2023/08/16 02:18:56;;;;;;;9.97;6.20;;;;;;;20.37;100.00;101854.88;5261706;28;20037;-71
2023/08/16 02:21:27;;;;;;;9.83;5.90;;;;;;;20.52;100.00;101858.03;5253916;28;20040;-72
2023/08/16 02:23:58;;;;;;;7.90;5.60;;;;;;;20.31;100.00;101849.09;5252784;28;20539;-71
2023/08/16 02:26:30;;;;;;;13.00;7.00;;;;;;;20.36;100.00;101855.84;5253859;28;20047;-71
2023/08/16 02:29:01;;;;;;;7.97;6.13;;;;;;;20.34;100.00;101852.47;5219754;28;20464;-71
2023/08/16 02:31:32;;;;;;;8.87;5.87;;;;;;;20.23;100.00;101853.41;5270048;28;20119;-71
2023/08/16 02:34:04;;;;;;;13.87;6.57;;;;;;;20.33;100.00;101851.63;5274618;28;20471;-72
2023/08/16 02:36:35;;;;;;;10.80;6.67;;;;;;;20.50;100.00;101852.84;5274338;28;20020;-71
2023/08/16 02:39:08;;;;;;;11.67;6.50;;;;;;;20.14;100.00;101845.22;5274454;28;20138;-72
2023/08/16 02:41:39;;;;;;;9.20;6.40;;;;;;;20.17;100.00;101842.31;5274978;28;20100;-71
2023/08/16 02:44:11;;;;;;;10.07;6.70;;;;;;;20.38;100.00;101843.25;5256973;28;20190;-71
2023/08/16 02:46:43;;;;;;;9.67;6.40;;;;;;;20.05;100.00;101833.56;5270592;28;20040;-71
2023/08/16 02:49:14;;;;;;;7.67;6.13;;;;;;;20.15;100.00;101838.09;5253466;28;20033;-71
2023/08/16 02:51:45;;;;;;;8.97;6.27;;;;;;;20.06;100.00;101831.72;5252915;28;20025;-71
2023/08/16 02:54:16;;;;;;;11.67;6.67;;;;;;;20.33;100.00;101840.16;5252782;28;20102;-71
2023/08/16 02:56:48;;;;;;;11.17;7.07;;;;;;;19.90;100.00;101846.28;5253556;28;20615;-71
2023/08/16 02:59:20;;;;;;;11.40;7.40;;;;;;;20.02;100.00;101847.06;5252927;28;20143;-71
2023/08/16 03:01:51;;;;;;;8.83;7.03;;;;;;;19.94;100.00;101830.94;5261606;28;20017;-71
2023/08/16 03:04:22;;;;;;;10.93;6.13;;;;;;;20.26;100.00;101838.03;5274086;28;20478;-71
2023/08/16 03:06:54;;;;;;;10.23;6.70;;;;;;;20.11;100.00;101837.50;5257300;28;20467;-71
2023/08/16 03:09:25;;;;;;;10.20;6.13;;;;;;;20.24;100.00;101837.31;5235292;28;20093;-71
2023/08/16 03:11:56;;;;;;;10.23;6.13;;;;;;;20.33;100.00;101845.47;5235967;28;20040;-71
2023/08/16 03:14:28;;;;;;;9.33;6.73;;;;;;;19.92;100.00;101846.16;5253032;28;20025;-71
2023/08/16 03:17:00;;;;;;;8.73;6.30;;;;;;;19.95;100.00;101844.09;5253050;28;20033;-71
2023/08/16 03:19:31;;;;;;;9.37;6.53;;;;;;;20.04;100.00;101858.47;5253699;28;20024;-71
2023/08/16 03:22:03;;;;;;;12.43;6.47;;;;;;;19.86;100.00;101854.66;5234015;28;20037;-72
2023/08/16 03:24:34;;;;;;;11.37;6.60;;;;;;;19.85;100.00;101837.00;5234579;28;20029;-72
2023/08/16 03:27:05;;;;;;;8.03;6.03;;;;;;;20.11;100.00;101850.81;5252732;28;20048;-71
2023/08/16 03:29:37;;;;;;;12.80;5.97;;;;;;;19.98;100.00;101840.34;5252731;28;20625;-71
2023/08/16 03:32:08;;;;;;;8.23;6.50;;;;;;;20.02;100.00;101836.44;5252739;28;20032;-71
2023/08/16 03:34:41;;;;;;;8.47;5.97;;;;;;;19.80;100.00;101835.59;5235509;28;20467;-71
2023/08/16 03:37:13;;;;;;;9.55;6.38;;;;;;;19.77;100.00;101849.16;5251332;28;20052;-71
2023/08/16 03:39:44;;;;;;;9.40;5.87;;;;;;;19.76;100.00;101850.13;5252955;28;20017;-71
2023/08/16 03:42:15;;;;;;;8.80;6.50;;;;;;;20.06;100.00;101856.50;5252793;28;20025;-71
2023/08/16 03:44:46;;;;;;;10.77;6.27;;;;;;;19.94;100.00;101858.38;5252368;28;20059;-71
2023/08/16 03:47:18;;;;;;;10.03;6.40;;;;;;;19.81;100.00;101850.56;5252740;28;20041;-71
2023/08/16 03:49:50;;;;;;;8.13;6.77;;;;;;;19.94;100.00;101858.38;5252970;28;20550;-71
2023/08/16 03:52:21;;;;;;;9.40;6.87;;;;;;;19.89;100.00;101859.72;5251281;28;20122;-71
2023/08/16 03:54:53;;;;;;;13.37;7.20;;;;;;;19.63;100.00;101868.06;5252687;28;20163;-71
2023/08/16 03:57:25;;;;;;;10.20;8.20;;;;;;;19.59;100.00;101865.66;5252427;28;20017;-71
2023/08/16 03:59:56;;;;;;;13.23;6.87;;;;;;;19.61;100.00;101862.88;5254495;28;20367;-71
2023/08/16 04:02:27;;;;;;;9.67;6.93;;;;;;;19.78;100.00;101872.09;5256161;28;20429;-71
2023/08/16 04:05:08;;;;;;;8.17;6.73;;;;;;;19.68;100.00;101857.88;5256324;28;20083;-71
2023/08/16 04:07:40;;;;;;;9.07;7.10;;;;;;;19.56;100.00;101868.56;5229623;28;20073;-71
2023/08/16 04:10:11;;;;;;;10.83;6.60;;;;;;;19.72;100.00;101862.00;5260994;28;20067;-71
2023/08/16 04:12:42;;;;;;;12.60;7.80;;;;;;;19.74;100.00;101862.69;5259085;28;20041;-71
2023/08/16 04:15:14;;;;;;;8.40;6.70;;;;;;;19.50;100.00;101876.19;5263351;28;20028;-71
2023/08/16 04:17:45;;;;;;;7.60;6.00;;;;;;;19.47;100.00;101882.59;5256858;28;20780;-71
2023/08/16 04:20:16;;;;;;;10.13;7.00;;;;;;;19.50;100.00;101886.81;5255529;28;20044;-71
2023/08/16 04:22:48;;;;;;;11.27;6.87;;;;;;;19.42;100.00;101879.47;5256146;28;20025;-71
2023/08/16 04:25:20;;;;;;;11.53;7.47;;;;;;;19.37;100.00;101882.53;5256248;28;20586;-71
2023/08/16 04:27:51;;;;;;;11.37;7.43;;;;;;;19.28;100.00;101881.44;5268280;28;20099;-71
2023/08/16 04:30:22;;;;;;;10.93;6.87;;;;;;;19.51;100.00;101878.75;5277119;28;20078;-71
2023/08/16 04:32:53;;;;;;;9.83;7.57;;;;;;;19.40;100.00;101884.06;5277600;28;20021;-71
2023/08/16 04:35:25;;;;;;;9.37;7.37;;;;;;;19.25;100.00;101884.38;5259015;28;20596;-71
2023/08/16 04:37:56;;;;;;;10.53;7.03;;;;;;;19.63;100.00;101882.19;5258362;28;20461;-71
2023/08/16 04:40:27;;;;;;;8.53;6.60;;;;;;;19.46;100.00;101880.94;5276597;28;20024;-71
2023/08/16 04:42:59;;;;;;;11.77;7.33;;;;;;;19.51;100.00;101873.44;5271620;28;20499;-71
2023/08/16 04:45:30;;;;;;;14.87;7.10;;;;;;;19.37;100.00;101873.69;5255787;28;20025;-71
2023/08/16 04:48:01;;;;;;;9.73;7.30;;;;;;;19.53;100.00;101871.47;5255616;28;20021;-72
2023/08/16 04:50:33;;;;;;;10.40;6.87;;;;;;;19.42;100.00;101868.84;5256021;28;20029;-72
2023/08/16 04:53:04;;;;;;;11.53;8.30;;;;;;;19.30;100.00;101882.19;5236445;28;20033;-72
2023/08/16 04:55:35;;;;;;;7.50;6.53;;;;;;;19.39;100.00;101874.44;5255113;28;20029;-71
2023/08/16 04:58:07;;;;;;;8.80;7.27;;;;;;;19.27;100.00;101881.56;5255360;28;20039;-71
2023/08/16 05:00:38;;;;;;;11.30;7.17;;;;;;;19.41;100.00;101880.47;5255821;28;20025;-71
2023/08/16 05:03:09;;;;;;;8.07;6.60;;;;;;;19.23;100.00;101880.97;5255396;28;20110;-71
2023/08/16 05:05:41;;;;;;;11.57;7.33;;;;;;;19.35;100.00;101895.06;5261046;28;20035;-71
2023/08/16 05:08:12;;;;;;;11.03;7.37;;;;;;;19.34;100.00;101883.59;5275447;28;20112;-71
2023/08/16 05:10:43;;;;;;;15.00;6.67;;;;;;;19.32;100.00;101874.09;5275283;28;20020;-71
2023/08/16 05:13:15;;;;;;;9.00;7.10;;;;;;;19.34;100.00;101883.59;5276354;28;20021;-71
2023/08/16 05:15:46;;;;;;;10.43;6.87;;;;;;;19.20;100.00;101889.19;5269983;28;20719;-71
2023/08/16 05:18:17;;;;;;;8.23;7.33;;;;;;;19.08;100.00;101891.81;5254630;28;20029;-71
2023/08/16 05:20:49;;;;;;;10.73;7.47;;;;;;;19.14;100.00;101902.94;5255841;28;20020;-71
2023/08/16 05:23:20;;;;;;;8.47;6.90;;;;;;;19.29;100.00;101904.38;5253434;28;20032;-71
2023/08/16 05:25:51;;;;;;;13.27;7.83;;;;;;;19.19;100.00;101906.09;5254953;28;20692;-71
2023/08/16 05:28:23;;;;;;;8.10;7.20;;;;;;;19.21;100.00;101909.47;5237428;28;20067;-71
2023/08/16 05:30:54;;;;;;;8.07;6.70;;;;;;;19.16;100.00;101909.84;5259226;28;20478;-71
2023/08/16 05:33:25;;;;;;;11.93;6.57;;;;;;;19.45;100.00;101911.09;5272706;28;20109;-71
2023/08/16 05:35:57;;;;;;;6.97;6.00;;;;;;;19.29;100.00;101907.03;5255191;28;20029;-71
2023/08/16 05:38:28;;;;;;;9.20;6.20;;;;;;;19.38;100.00;101909.91;5253626;28;20079;-71
2023/08/16 05:41:03;;;;;;;9.80;6.70;;;;;;;19.33;100.00;101908.47;5255502;28;20029;-71
2023/08/16 05:43:34;;;;;;;9.13;6.30;;;;;;;19.19;100.00;101911.41;5263171;28;20487;-71
2023/08/16 05:46:06;;;;;;;8.40;6.37;;;;;;;19.31;100.00;101913.06;5275224;28;20029;-71
2023/08/16 05:48:37;;;;;;;7.13;5.90;;;;;;;19.56;100.00;101918.19;5257804;28;20074;-71
2023/08/16 05:51:08;;;;;;;8.07;6.57;;;;;;;19.45;100.00;101913.75;5274411;28;20426;-71
2023/08/16 05:53:39;;;;;;;8.77;6.10;;;;;;;19.56;100.00;101923.50;5275715;28;20036;-71
2023/08/16 05:56:11;;;;;;;8.87;5.70;;;;;;;19.57;100.00;101920.72;5275357;28;20526;-71
2023/08/16 05:58:44;;;;;;;12.07;6.17;;;;;;;19.55;100.00;101940.41;5275464;28;20033;-71
2023/08/16 06:01:15;;;;;;;7.97;6.53;;;;;;;19.40;100.00;101931.88;5265122;28;20627;-72
2023/08/16 06:03:47;;;;;;;9.57;6.30;;;;;;;19.63;100.00;101939.78;5254424;28;20099;-72
2023/08/16 06:06:18;;;;;;;6.50;5.43;;;;;;;19.65;100.00;101937.88;5253309;28;20025;-72
2023/08/16 06:08:49;;;;;;;7.57;5.53;;;;;;;19.56;100.00;101929.69;5254116;28;20103;-72
2023/08/16 06:11:21;;;;;;;10.93;6.67;;;;;;;19.63;100.00;101934.47;5229622;28;20048;-72
2023/08/16 06:13:52;;;;;;;11.23;5.53;;;;;;;19.64;100.00;101928.19;5214951;28;20072;-72
2023/08/16 06:16:23;;;;;;;8.17;6.03;;;;;;;19.65;100.00;101925.44;5234684;28;20464;-72
2023/08/16 06:18:55;;;;;;;10.83;5.60;;;;;;;19.61;100.00;101923.13;5240846;28;20059;-72
2023/08/16 06:21:27;;;;;;;8.40;5.80;;;;;;;19.70;100.00;101927.69;5257321;28;20033;-72
2023/08/16 06:23:58;;;;;;;8.43;5.57;;;;;;;19.52;100.00;101927.38;5246224;28;20666;-72
2023/08/16 06:26:29;;;;;;;9.53;5.07;;;;;;;19.67;100.00;101935.94;5262507;28;20037;-72
2023/08/16 06:29:01;;;;;;;8.70;5.00;;;;;;;19.69;100.00;101928.66;5243932;28;20040;-72
2023/08/16 06:31:32;;;;;;;8.97;5.57;;;;;;;19.64;100.00;101925.53;5255958;28;20209;-72
2023/08/16 06:34:03;;;;;;;6.57;4.80;;;;;;;19.59;100.00;101924.13;5253320;28;20062;-73
2023/08/16 06:36:35;;;;;;;9.07;4.37;;;;;;;19.73;100.00;101924.78;5250287;28;20448;-72
2023/08/16 06:39:06;;;;;;;10.03;5.40;;;;;;;19.76;100.00;101929.84;5252582;28;20061;-71
2023/08/16 06:41:38;;;;;;;10.77;6.10;;;;;;;19.94;100.00;101939.94;5252990;28;20033;-72
2023/08/16 06:44:09;;;;;;;9.67;5.27;;;;;;;19.79;100.00;101923.44;5253150;28;20382;-72
2023/08/16 06:46:43;;;;;;;6.07;4.57;;;;;;;19.92;100.00;101931.22;5252512;28;20040;-72
2023/08/16 06:49:14;;;;;;;10.13;4.70;;;;;;;20.09;100.00;101921.06;5249493;28;20021;-72
2023/08/16 06:51:45;;;;;;;9.83;4.83;;;;;;;20.16;100.00;101931.03;5240742;28;20922;-73
2023/08/16 06:54:17;;;;;;;11.13;4.87;;;;;;;20.05;100.00;101918.66;5252862;28;20079;-72
2023/08/16 06:56:49;;;;;;;8.87;4.30;;;;;;;20.25;100.00;101933.88;5251599;28;20631;-73
2023/08/16 06:59:20;;;;;;;10.10;5.00;;;;;;;20.19;100.00;101935.25;5241341;28;20021;-73
2023/08/16 07:01:52;;;;;;;8.37;4.50;;;;;;;20.45;100.00;101939.34;5252653;28;20040;-73
2023/08/16 07:04:24;;;;;;;8.17;3.97;;;;;;;20.52;100.00;101952.00;5234188;28;20056;-72
2023/08/16 07:06:56;;;;;;;7.20;3.83;;;;;;;20.55;100.00;101956.19;5241793;28;20033;-73
2023/08/16 07:09:27;;;;;;;8.03;3.80;;;;;;;20.66;100.00;101955.28;5234417;28;20069;-73
2023/08/16 07:11:58;;;;;;;9.57;3.67;;;;;;;20.70;100.00;101942.56;5235388;28;20126;-73
2023/08/16 07:14:30;;;;;;;6.87;3.80;;;;;;;20.85;100.00;101932.41;5252452;28;20033;-73
2023/08/16 07:17:05;;;;;;;9.37;3.67;;;;;;;20.95;100.00;101930.66;5252856;28;20024;-73
2023/08/16 07:19:36;;;;;;;8.97;3.40;;;;;;;21.17;100.00;101938.56;5252789;28;20032;-73
2023/08/16 07:22:07;;;;;;;6.40;2.93;;;;;;;21.38;100.00;101936.66;5251412;28;20033;-73
2023/08/16 07:24:38;;;;;;;6.40;3.20;;;;;;;21.56;100.00;101937.78;5252784;28;20091;-72
2023/08/16 07:27:10;;;;;;;6.80;3.60;;;;;;;21.69;100.00;101948.19;5246940;28;20032;-72
2023/08/16 07:29:41;;;;;;;7.93;3.33;;;;;;;21.74;100.00;101951.28;5252651;28;20407;-72
2023/08/16 07:32:12;;;;;;;6.88;3.13;;;;;;;21.95;98.53;101953.88;5237840;28;20032;-73
2023/08/16 07:34:44;;;;;;;6.95;3.10;;;;;;;22.20;94.55;101951.59;5251104;28;20052;-72
2023/08/16 07:37:15;;;;;;;5.97;3.15;;;;;;;22.52;90.35;101949.56;5246136;28;20029;-73
2023/08/16 07:39:46;;;;;;;7.97;2.90;;;;;;;23.03;87.49;101957.28;5252321;28;20056;-73
2023/08/16 07:42:19;;;;;;;9.57;3.13;;;;;;;23.26;86.03;101956.03;5251843;28;20028;-72
2023/08/16 07:44:50;;;;;;;10.32;2.55;;;;;;;23.67;85.73;101952.97;5251520;28;20089;-71
2023/08/16 07:47:21;;;;;;;4.95;2.22;;;;;;;23.95;76.65;101952.06;5231602;28;20037;-71
2023/08/16 07:49:54;;;;;;;5.45;2.20;;;;;;;24.54;77.76;101962.25;5239447;28;20071;-70
2023/08/16 07:52:26;;;;;;;5.50;2.28;;;;;;;24.85;72.13;101961.72;5231256;28;20029;-71
2023/08/16 07:54:58;;;;;;;5.50;2.40;;;;;;;24.81;68.13;101963.03;5236230;28;20029;-71
2023/08/16 07:57:31;;;;;;;5.03;2.42;;;;;;;25.53;67.58;101965.47;5252413;28;20033;-71
2023/08/16 08:00:04;;;;;;;7.68;2.38;;;;;;;25.96;66.47;101971.59;5252372;28;20022;-70
2023/08/16 08:02:36;;;;;;;5.43;2.03;;;;;;;26.37;61.60;101963.69;5252398;28;20057;-70
2023/08/16 08:05:07;;;;;;;3.47;1.90;;;;;;;26.33;56.71;101968.53;5240527;28;20032;-70
2023/08/16 08:07:39;;;;;;;7.80;2.47;;;;;;;26.74;58.04;101964.94;5251070;28;20045;-72
2023/08/16 08:10:10;;;;;;;5.88;1.63;;;;;;;27.60;54.94;101978.66;5234216;28;20033;-71
2023/08/16 08:12:46;;;;;;;7.20;1.77;;;;;;;27.94;53.07;101985.50;5252001;28;20064;-72
2023/08/16 08:15:18;;;;;;;6.00;2.20;;;;;;;27.51;51.61;101985.94;5251798;28;20048;-71
2023/08/16 08:17:49;;;;;;;4.75;2.28;;;;;;;27.34;52.10;101985.19;5263275;28;20031;-71
2023/08/16 08:20:21;;;;;;;5.90;2.25;;;;;;;28.65;47.43;101993.44;5272761;28;20076;-70
2023/08/16 08:22:52;;;;;;;7.78;2.42;;;;;;;28.90;46.70;101983.22;5237669;28;20037;-70
2023/08/16 08:25:24;;;;;;;5.25;2.42;;;;;;;28.33;47.01;101993.59;5236785;28;20021;-71
2023/08/16 08:27:56;;;;;;;6.80;2.40;;;;;;;28.92;46.25;101969.53;5238502;28;20033;-70
2023/08/16 08:30:27;;;;;;;8.20;2.40;;;;;;;29.45;45.36;101973.88;5231732;28;20559;-72
2023/08/16 08:33:00;;;;;;;5.38;1.90;;;;;;;29.39;45.62;101986.31;5235806;28;20490;-73
2023/08/16 08:35:33;;;;;;;8.15;1.95;;;;;;;30.09;43.98;101982.19;5254275;28;20037;-74
2023/08/16 08:38:04;;;;;;;9.57;2.50;;;;;;;30.05;42.38;101983.59;5255222;28;20405;-74
2023/08/16 08:40:36;;;;;;;5.35;2.13;;;;;;;30.55;41.03;101986.25;5273030;28;20051;-73
2023/08/16 08:43:09;;;;;;;7.55;2.60;;;;;;;30.51;41.75;101992.28;5273029;28;20081;-73
2023/08/16 08:45:42;;;;;;;3.55;1.73;;;;;;;29.84;42.25;101993.41;5243389;28;20036;-74
2023/08/16 08:48:14;;;;;;;6.60;2.22;;;;;;;29.33;43.77;101992.44;5255593;28;20509;-73
2023/08/16 08:50:46;;;;;;;8.02;2.20;;;;;;;28.65;44.86;101994.28;5249825;28;20037;-73
2023/08/16 08:53:18;;;;;;;5.78;1.83;;;;;;;28.61;44.96;101985.72;5256009;28;20456;-72
2023/08/16 08:55:52;;;;;;;4.95;1.83;;;;;;;27.92;47.65;102002.84;5253882;28;20035;-74
2023/08/16 08:58:25;;;;;;;8.00;2.70;;;;;;;27.82;48.81;101997.72;5262605;28;20119;-73
2023/08/16 09:00:57;;;;;;;17.90;2.50;;;;;;;27.99;48.71;102006.50;5255197;28;20481;-76
2023/08/16 09:03:30;;;;;;;8.95;2.42;;;;;;;27.11;51.62;102005.66;5252891;28;20017;-73
2023/08/16 09:06:03;;;;;;;4.85;2.03;;;;;;;27.22;52.31;102004.44;5271126;28;20033;-72
2023/08/16 09:08:36;;;;;;;7.15;2.20;;;;;;;27.57;50.46;102003.22;5252322;28;20041;-74
2023/08/16 09:11:08;;;;;;;6.18;2.17;;;;;;;27.79;48.90;101998.91;5260812;28;20056;-72
2023/08/16 09:13:39;;;;;;;10.25;2.85;;;;;;;27.62;50.73;102003.53;5258771;28;20469;-73
2023/08/16 09:16:11;;;;;;;8.43;2.22;;;;;;;28.25;48.16;102008.78;5255306;28;20158;-72
2023/08/16 09:18:49;;;;;;;6.25;2.30;;;;;;;28.27;47.90;102012.16;5249194;28;20034;-74
2023/08/16 09:21:24;;;;;;;5.25;2.40;;;;;;;27.70;49.35;102006.19;5250186;28;20036;-73
2023/08/16 09:23:57;;;;;;;6.15;2.95;;;;;;;28.11;48.82;102010.44;5263008;28;20131;-74
2023/08/16 09:26:29;;;;;;;6.65;2.42;;;;;;;27.75;50.82;102002.97;5273462;28;20025;-74
2023/08/16 09:29:05;;;;;;;5.43;2.78;;;;;;;27.40;52.09;102006.84;5242788;28;20052;-73
2023/08/16 09:31:41;;;;;;;4.88;2.22;;;;;;;27.52;53.37;102004.63;5244502;28;20118;-74
2023/08/16 09:34:15;;;;;;;7.35;2.75;;;;;;;27.86;50.95;101999.00;5244703;28;20036;-74
2023/08/16 09:36:47;;;;;;;7.47;2.88;;;;;;;27.77;51.27;102000.94;5235313;28;20033;-72
2023/08/16 09:39:24;;;;;;;6.50;3.00;;;;;;;27.38;52.31;101995.44;5251491;28;20037;-72
2023/08/16 09:41:56;;;;;;;6.65;2.95;;;;;;;27.47;53.65;101987.31;5255151;28;20036;-72
2023/08/16 09:44:31;;;;;;;10.93;3.35;;;;;;;27.29;54.02;101986.59;5252692;28;20036;-73
2023/08/16 09:47:13;;;;;;;6.97;3.28;;;;;;;28.02;53.12;101993.50;5234106;28;20491;-73
2023/08/16 09:49:46;;;;;;;9.20;3.40;;;;;;;27.60;54.17;102000.16;5247765;28;20057;-72
2023/08/16 09:52:18;;;;;;;9.13;3.55;;;;;;;27.42;53.28;101991.38;5262040;28;20021;-72
2023/08/16 09:54:54;;;;;;;6.15;2.95;;;;;;;27.66;54.70;101983.34;5255740;28;20048;-72
2023/08/16 09:57:25;;;;;;;10.82;3.60;;;;;;;27.96;52.66;101991.53;5254191;28;20032;-72
2023/08/16 09:59:57;;;;;;;4.80;2.70;;;;;;;27.62;53.61;101992.75;5254177;28;20094;-72
2023/08/16 10:02:29;;;;;;;4.80;3.17;;;;;;;27.61;54.39;101991.94;5253779;28;20035;-72
2023/08/16 10:05:01;;;;;;;5.72;3.10;;;;;;;27.63;52.38;101987.19;5235280;28;20028;-73
2023/08/16 10:07:33;;;;;;;6.75;3.17;;;;;;;27.43;53.55;101986.84;5237600;28;20038;-72
2023/08/16 10:10:09;;;;;;;7.88;2.70;;;;;;;27.44;53.28;101987.69;5243660;28;20057;-71
2023/08/16 10:12:41;;;;;;;9.02;3.20;;;;;;;27.36;52.24;101978.66;5238858;28;20021;-71
2023/08/16 10:15:14;;;;;;;6.82;3.00;;;;;;;27.33;54.73;101986.22;5244446;28;20025;-73
2023/08/16 10:17:50;;;;;;;11.85;2.90;;;;;;;27.39;54.96;101988.19;5228509;28;20029;-73
2023/08/16 10:20:24;;;;;;;7.55;3.10;;;;;;;27.06;53.88;101999.97;5253714;28;20033;-73
2023/08/16 10:22:59;;;;;;;7.65;3.65;;;;;;;26.91;55.36;101986.38;5249211;28;20152;-72
2023/08/16 10:25:36;;;;;;;6.57;3.53;;;;;;;26.64;56.56;101980.41;5247219;28;20028;-73
2023/08/16 10:28:08;;;;;;;8.70;4.03;;;;;;;26.87;55.18;101977.84;5251964;28;20388;-73
2023/08/16 10:30:41;;;;;;;7.07;2.60;;;;;;;26.76;60.98;101988.97;5225160;28;20029;-73
2023/08/16 10:33:25;;;;;;;10.20;4.32;;;;;;;26.90;59.82;101979.31;5220202;28;20071;-72
2023/08/16 10:35:57;;;;;;;5.25;2.92;;;;;;;26.91;59.99;101987.25;5251035;28;20072;-72
2023/08/16 10:38:38;;;;;;;8.70;3.10;;;;;;;27.26;58.66;101976.19;5251975;28;20017;-72
2023/08/16 10:41:14;;;;;;;8.40;3.70;;;;;;;27.03;57.85;101989.56;5235789;28;20025;-72
2023/08/16 10:43:47;;;;;;;7.75;3.90;;;;;;;27.18;58.33;101986.97;5216738;28;20104;-73
2023/08/16 10:46:34;;;;;;;7.22;3.28;;;;;;;27.38;56.63;101979.31;5249548;28;20777;-72
2023/08/16 10:49:06;;;;;;;7.32;3.53;;;;;;;27.13;58.46;101979.44;5232613;28;20499;-72
2023/08/16 10:51:51;;;;;;;8.25;4.10;;;;;;;27.29;57.74;101989.28;5252608;28;20024;-74
2023/08/16 10:54:35;;;;;;;8.50;3.20;;;;;;;27.05;57.59;101982.97;5235283;28;20032;-72
2023/08/16 10:57:09;;;;;;;;;;;;;;;27.94;54.20;101982.81;5246180;28;20116;-72
2023/08/16 10:59:42;;;;;;;9.07;3.03;;;;;;;27.46;54.77;101973.03;5245983;28;19974;-72
2023/08/16 11:02:18;;;;;;;9.48;3.65;;;;;;;27.17;56.29;101974.53;5272008;28;20020;-73
2023/08/16 11:04:49;;;;;;;7.88;3.63;;;;;;;27.25;56.23;101979.88;5220555;28;20021;-72
2023/08/16 11:07:22;;;;;;;6.15;3.83;;;;;;;27.50;56.38;101979.75;5215905;28;20033;-72
2023/08/16 11:09:59;;;;;;;10.10;3.38;;;;;;;27.32;59.22;101982.69;5219307;28;20677;-72
2023/08/16 11:12:30;;;;;;;9.68;3.40;;;;;;;27.45;58.21;101971.38;5232953;28;20756;-73
2023/08/16 11:15:02;;;;;;;5.10;2.83;;;;;;;27.32;60.09;101966.56;5230264;28;20116;-73
2023/08/16 11:17:34;;;;;;;5.47;3.55;;;;;;;27.13;60.10;101981.28;5252345;28;20043;-72
2023/08/16 11:20:07;;;;;;;6.50;3.40;;;;;;;27.41;59.64;101975.41;5243012;28;20292;-73
2023/08/16 11:22:39;;;;;;;9.07;3.47;;;;;;;27.24;57.59;101974.69;5244258;28;20719;-73
2023/08/16 11:25:10;;;;;;;6.97;3.08;;;;;;;27.40;56.83;101965.69;5248277;28;20045;-72
2023/08/16 11:27:42;;;;;;;6.60;3.20;;;;;;;27.24;58.67;101969.28;5230931;28;20119;-73
2023/08/16 11:30:13;;;;;;;12.85;2.83;;;;;;;27.39;56.73;101967.53;5240554;28;20056;-74
2023/08/16 11:32:44;;;;;;;7.22;2.45;;;;;;;27.52;56.29;101964.25;5245143;28;20116;-74
2023/08/16 11:35:16;;;;;;;7.43;2.53;;;;;;;27.43;54.06;101968.00;5251051;28;20057;-74
2023/08/16 11:37:47;;;;;;;6.72;2.88;;;;;;;27.37;54.87;101961.47;5230817;28;20017;-74
2023/08/16 11:40:22;;;;;;;6.80;2.85;;;;;;;27.72;53.98;101969.19;5259777;28;20063;-72
2023/08/16 11:42:53;;;;;;;5.15;2.75;;;;;;;27.62;55.89;101964.00;5248113;28;20043;-73